createdAt,value
2018-10-01T00:00:20.239Z,66.98
2018-10-01T00:02:49.882Z,67.64
2018-10-01T00:05:19.563Z,68.08
2018-10-01T00:07:49.578Z,68.06
2018-10-01T00:10:19.336Z,67.99
2018-10-01T00:12:49.048Z,68.58
2018-10-01T00:15:18.772Z,69.17
2018-10-01T00:17:48.499Z,68.82
2018-10-01T00:21:20.995Z,68.59
2018-10-01T00:23:50.723Z,68.57
2018-10-01T00:26:20.490Z,68.75
2018-10-01T00:28:50.327Z,68.98
2018-10-01T00:31:20.181Z,69.57
2018-10-01T00:33:49.857Z,69.36
2018-10-01T00:36:19.699Z,69.75
2018-10-01T00:38:49.371Z,70.08
2018-10-01T00:41:19.052Z,70.53
2018-10-01T00:43:48.768Z,70.65
2018-10-01T00:46:18.441Z,71.68
2018-10-01T00:48:48.187Z,71.56
2018-10-01T00:51:17.853Z,72.15
2018-10-01T00:53:47.495Z,72.15
2018-10-01T00:56:17.176Z,72.77
2018-10-01T00:58:47.007Z,72.86
2018-10-01T01:01:16.655Z,72.67
2018-10-01T01:03:46.337Z,72.72
2018-10-01T01:06:16.098Z,73.09
2018-10-01T01:08:45.826Z,73.06
2018-10-01T01:11:15.745Z,73.84
2018-10-01T01:13:45.748Z,74.01
2018-10-01T01:16:15.412Z,73.89
2018-10-01T01:18:45.278Z,74.33
2018-10-01T01:21:15.093Z,74.79
2018-10-01T01:23:44.725Z,74.98
2018-10-01T01:26:14.388Z,75.46
2018-10-01T01:28:44.056Z,75.72
2018-10-01T01:31:13.707Z,75.91
2018-10-01T01:33:43.331Z,76.14
2018-10-01T01:36:12.984Z,76.31
2018-10-01T01:38:42.708Z,76.56
2018-10-01T01:41:12.138Z,76.99
2018-10-01T01:43:41.871Z,77.08
2018-10-01T01:46:11.270Z,76.90
2018-10-01T01:48:40.900Z,77.33
2018-10-01T01:51:10.816Z,77.67
2018-10-01T01:53:40.258Z,77.87
2018-10-01T01:56:09.682Z,77.66
2018-10-01T01:58:39.124Z,78.11
2018-10-01T02:01:08.719Z,78.24
2018-10-01T02:03:38.116Z,78.37
2018-10-01T02:06:07.616Z,78.44
2018-10-01T02:08:37.171Z,78.48
2018-10-01T02:11:06.671Z,78.49
2018-10-01T02:13:36.332Z,78.24
2018-10-01T02:16:05.760Z,78.56
2018-10-01T02:18:35.168Z,78.68
2018-10-01T02:21:04.639Z,78.54
2018-10-01T02:23:34.278Z,78.54
2018-10-01T02:26:03.693Z,78.68
2018-10-01T02:28:33.082Z,79.02
2018-10-01T02:31:02.485Z,78.95
2018-10-01T02:33:31.909Z,79.11
2018-10-01T02:36:01.345Z,79.29
2018-10-01T02:38:30.764Z,79.25
2018-10-01T02:41:00.200Z,79.08
2018-10-01T02:43:29.802Z,78.72
2018-10-01T02:45:59.297Z,78.78
2018-10-01T02:48:28.773Z,78.64
2018-10-01T02:50:58.176Z,78.35
2018-10-01T02:53:32.840Z,78.05
2018-10-01T02:56:02.259Z,78.32
2018-10-01T02:58:31.688Z,77.82
2018-10-01T03:01:01.133Z,77.80
2018-10-01T03:03:30.529Z,77.37
2018-10-01T03:05:59.956Z,76.76
2018-10-01T03:08:29.363Z,76.82
2018-10-01T03:10:58.770Z,76.89
2018-10-01T03:13:28.167Z,77.00
2018-10-01T03:15:57.747Z,77.55
2018-10-01T03:18:27.190Z,77.46
2018-10-01T03:20:56.586Z,77.82
2018-10-01T03:23:26.011Z,78.07
2018-10-01T03:25:55.441Z,78.42
2018-10-01T03:28:24.921Z,78.12
2018-10-01T03:30:54.327Z,78.47
2018-10-01T03:33:23.790Z,78.87
2018-10-01T03:35:53.492Z,78.49
2018-10-01T03:38:22.947Z,78.30
2018-10-01T03:40:52.479Z,78.65
2018-10-01T03:43:21.904Z,78.71
2018-10-01T03:45:51.337Z,78.45
2018-10-01T03:48:20.765Z,78.92
2018-10-01T03:50:50.281Z,79.00
2018-10-01T03:53:19.854Z,78.81
2018-10-01T03:55:49.229Z,78.36
2018-10-01T03:58:18.612Z,78.74
2018-10-01T04:00:48.005Z,78.54
2018-10-01T04:03:17.437Z,78.62
2018-10-01T04:05:46.835Z,78.44
2018-10-01T04:08:16.238Z,78.34
2018-10-01T04:10:45.729Z,78.50
2018-10-01T04:13:15.231Z,78.21
2018-10-01T04:15:44.661Z,78.03
2018-10-01T04:18:14.143Z,78.55
2018-10-01T04:20:43.540Z,78.62
2018-10-01T04:23:12.950Z,78.47
2018-10-01T04:25:42.473Z,78.70
2018-10-01T04:28:11.902Z,78.50
2018-10-01T04:30:41.316Z,78.58
2018-10-01T04:33:10.735Z,78.41
2018-10-01T04:35:40.137Z,78.71
2018-10-01T04:38:09.542Z,78.45
2018-10-01T04:40:39.170Z,78.52
2018-10-01T04:43:08.492Z,78.62
2018-10-01T04:45:37.925Z,78.72
2018-10-01T04:48:07.512Z,78.45
2018-10-01T04:50:36.908Z,78.91
2018-10-01T04:53:06.340Z,78.92
2018-10-01T04:55:35.759Z,78.87
2018-10-01T04:58:05.347Z,78.34
2018-10-01T05:00:34.697Z,78.99
2018-10-01T05:03:04.136Z,78.91
2018-10-01T05:05:33.569Z,78.67
2018-10-01T05:08:02.984Z,78.32
2018-10-01T05:10:32.431Z,78.41
2018-10-01T05:13:01.858Z,78.18
2018-10-01T05:15:31.275Z,78.23
2018-10-01T05:18:00.728Z,77.97
2018-10-01T05:20:30.120Z,77.47
2018-10-01T05:22:59.531Z,76.88
2018-10-01T05:25:28.949Z,77.05
2018-10-01T05:27:58.449Z,76.52
2018-10-01T05:30:27.852Z,75.93
2018-10-01T05:32:57.337Z,75.93
2018-10-01T05:35:26.832Z,75.41
2018-10-01T05:37:56.282Z,74.75
2018-10-01T05:40:25.692Z,73.26
2018-10-01T05:42:55.088Z,71.59
2018-10-01T05:45:24.569Z,70.08
2018-10-01T05:47:54.126Z,69.29
2018-10-01T05:50:23.583Z,69.30
2018-10-01T05:52:53.008Z,67.72
2018-10-01T05:55:22.440Z,66.28
2018-10-01T05:57:51.960Z,64.37
2018-10-01T06:00:21.276Z,62.41
2018-10-01T06:02:50.838Z,60.36
2018-10-01T06:05:20.236Z,58.53
2018-10-01T06:07:49.653Z,56.77
2018-10-01T06:10:19.244Z,55.34
2018-10-01T06:12:48.650Z,53.51
2018-10-01T06:15:18.080Z,51.89
2018-10-01T06:17:47.571Z,51.05
2018-10-01T06:20:17.049Z,48.92
2018-10-01T06:22:46.447Z,48.08
2018-10-01T06:25:16.049Z,46.26
2018-10-01T06:27:45.476Z,45.68
2018-10-01T06:30:14.888Z,44.21
2018-10-01T06:32:44.295Z,43.89
2018-10-01T06:35:13.700Z,43.91
2018-10-01T06:37:43.099Z,44.25
2018-10-01T06:40:13.117Z,43.96
2018-10-01T06:42:42.586Z,45.12
2018-10-01T06:45:12.011Z,44.87
2018-10-01T06:47:41.539Z,45.54
2018-10-01T06:50:10.971Z,46.18
2018-10-01T06:52:40.513Z,46.21
2018-10-01T06:55:10.255Z,47.02
2018-10-01T06:57:39.743Z,46.32
2018-10-01T07:00:10.063Z,46.57
2018-10-01T07:02:39.490Z,45.95
2018-10-01T07:05:08.924Z,44.43
2018-10-01T07:07:38.371Z,43.32
2018-10-01T07:10:07.904Z,41.37
2018-10-01T07:12:37.308Z,39.96
2018-10-01T07:15:06.738Z,38.64
2018-10-01T07:17:36.189Z,37.87
2018-10-01T07:20:06.642Z,36.52
2018-10-01T07:22:36.258Z,34.83
2018-10-01T07:25:05.632Z,33.75
2018-10-01T07:27:35.046Z,32.51
2018-10-01T07:30:04.543Z,31.72
2018-10-01T07:32:34.026Z,31.18
2018-10-01T07:35:03.444Z,32.09
2018-10-01T07:37:32.874Z,31.67
2018-10-01T07:40:02.342Z,32.26
2018-10-01T07:42:31.918Z,33.70
2018-10-01T07:45:01.576Z,34.21
2018-10-01T07:47:30.798Z,35.41
2018-10-01T07:50:00.194Z,36.83
2018-10-01T07:52:29.592Z,38.71
2018-10-01T07:54:59.019Z,38.96
2018-10-01T07:57:28.482Z,39.97
2018-10-01T07:59:58.277Z,40.80
2018-10-01T08:02:27.770Z,41.77
2018-10-01T08:04:57.339Z,41.52
2018-10-01T08:07:26.751Z,42.44
2018-10-01T08:09:56.156Z,43.55
2018-10-01T08:12:25.547Z,43.87
2018-10-01T08:14:54.940Z,44.96
2018-10-01T08:17:24.542Z,45.62
2018-10-01T08:19:53.943Z,45.32
2018-10-01T08:22:23.404Z,46.45
2018-10-01T08:24:52.803Z,45.78
2018-10-01T08:27:22.236Z,45.85
2018-10-01T08:29:51.833Z,46.24
2018-10-01T08:32:21.168Z,45.80
2018-10-01T08:34:50.549Z,45.24
2018-10-01T08:37:19.952Z,43.88
2018-10-01T08:39:49.665Z,43.26
2018-10-01T08:42:19.105Z,41.55
2018-10-01T08:44:48.520Z,41.40
2018-10-01T08:47:18.088Z,39.55
2018-10-01T08:49:52.572Z,39.29
2018-10-01T08:52:27.281Z,39.42
2018-10-01T08:54:56.876Z,39.02
2018-10-01T08:57:26.336Z,38.68
2018-10-01T08:59:56.080Z,38.84
2018-10-01T09:02:25.537Z,37.89
2018-10-01T09:04:54.908Z,37.93
2018-10-01T09:07:24.360Z,37.58
2018-10-01T09:09:53.789Z,37.27
2018-10-01T09:12:23.243Z,37.43
2018-10-01T09:15:00.212Z,36.03
2018-10-01T09:17:29.730Z,36.26
2018-10-01T09:19:59.240Z,35.80
2018-10-01T09:22:28.611Z,36.10
2018-10-01T09:24:58.043Z,36.55
2018-10-01T09:27:27.439Z,36.21
2018-10-01T09:29:57.088Z,36.88
2018-10-01T09:32:26.559Z,37.39
2018-10-01T09:34:55.929Z,36.72
2018-10-01T09:37:25.400Z,36.63
2018-10-01T09:39:54.878Z,36.24
2018-10-01T09:42:24.322Z,35.67
2018-10-01T09:44:53.832Z,35.10
2018-10-01T09:47:23.236Z,34.50
2018-10-01T09:49:52.656Z,34.64
2018-10-01T09:52:22.259Z,34.54
2018-10-01T09:54:51.633Z,34.22
2018-10-01T09:57:21.031Z,35.44
2018-10-01T09:59:50.463Z,35.25
2018-10-01T10:02:19.899Z,35.15
2018-10-01T10:04:49.294Z,34.29
2018-10-01T10:07:18.872Z,35.25
2018-10-01T10:09:48.285Z,35.73
2018-10-01T10:12:17.684Z,35.57
2018-10-01T10:14:47.140Z,35.84
2018-10-01T10:17:16.641Z,36.42
2018-10-01T10:19:46.385Z,36.11
2018-10-01T10:22:15.932Z,36.42
2018-10-01T10:24:45.240Z,36.99
2018-10-01T10:27:14.728Z,36.65
2018-10-01T10:29:44.441Z,36.55
2018-10-01T10:32:14.012Z,37.94
2018-10-01T10:34:43.279Z,37.99
2018-10-01T10:37:12.691Z,38.90
2018-10-01T10:39:42.257Z,40.33
2018-10-01T10:42:11.589Z,40.01
2018-10-01T10:44:41.129Z,40.25
2018-10-01T10:47:10.526Z,40.50
2018-10-01T10:49:39.933Z,41.09
2018-10-01T10:52:09.392Z,41.42
2018-10-01T10:54:38.840Z,41.79
2018-10-01T10:57:08.373Z,42.02
2018-10-01T10:59:37.729Z,41.89
2018-10-01T11:02:07.313Z,41.79
2018-10-01T11:04:36.668Z,43.11
2018-10-01T11:07:06.416Z,43.20
2018-10-01T11:09:35.769Z,43.46
2018-10-01T11:12:05.223Z,43.70
2018-10-01T11:14:34.721Z,44.13
2018-10-01T11:17:04.084Z,45.02
2018-10-01T11:19:33.489Z,45.72
2018-10-01T11:22:02.927Z,45.88
2018-10-01T11:24:32.357Z,47.04
2018-10-01T11:27:01.865Z,47.33
2018-10-01T11:29:31.199Z,48.49
2018-10-01T11:32:00.652Z,49.36
2018-10-01T11:34:30.205Z,49.84
2018-10-01T11:36:59.527Z,50.25
2018-10-01T11:39:28.990Z,52.46
2018-10-01T11:41:58.440Z,54.43
2018-10-01T11:44:27.876Z,55.70
2018-10-01T11:46:57.331Z,55.78
2018-10-01T11:49:26.834Z,55.95
2018-10-01T11:51:56.436Z,56.48
2018-10-01T11:54:25.962Z,55.72
2018-10-01T11:56:55.374Z,55.28
2018-10-01T11:59:24.819Z,55.93
2018-10-01T12:01:54.260Z,55.39
2018-10-01T12:04:23.868Z,55.68
2018-10-01T12:06:53.551Z,54.84
2018-10-01T12:09:23.023Z,55.46
2018-10-01T12:11:52.407Z,55.03
2018-10-01T12:14:21.892Z,55.76
2018-10-01T12:16:51.363Z,55.09
2018-10-01T12:19:20.811Z,55.20
2018-10-01T12:21:50.340Z,55.72
2018-10-01T12:24:19.884Z,56.18
2018-10-01T12:26:49.284Z,56.88
2018-10-01T12:29:18.791Z,56.92
2018-10-01T12:31:48.123Z,58.02
2018-10-01T12:34:17.579Z,58.10
2018-10-01T12:36:47.255Z,59.29
2018-10-01T12:39:16.785Z,59.01
2018-10-01T12:41:46.162Z,58.94
2018-10-01T12:44:15.560Z,59.77
2018-10-01T12:46:44.992Z,59.61
2018-10-01T12:49:14.439Z,59.36
2018-10-01T12:51:44.200Z,58.58
2018-10-01T12:54:13.525Z,58.63
2018-10-01T12:56:42.932Z,58.25
2018-10-01T12:59:12.416Z,57.85
2018-10-01T13:01:41.840Z,57.91
2018-10-01T13:04:11.319Z,57.39
2018-10-01T13:06:40.795Z,56.77
2018-10-01T13:09:12.017Z,56.30
2018-10-01T13:11:41.971Z,56.47
2018-10-01T13:14:11.391Z,55.20
2018-10-01T13:16:40.816Z,55.16
2018-10-01T13:19:10.305Z,55.35
2018-10-01T13:21:39.720Z,54.37
2018-10-01T13:24:09.135Z,54.98
2018-10-01T13:26:38.590Z,54.70
2018-10-01T13:29:08.005Z,54.55
2018-10-01T13:31:37.512Z,54.68
2018-10-01T13:34:06.964Z,54.34
2018-10-01T13:36:36.423Z,54.40
2018-10-01T13:39:09.403Z,54.19
2018-10-01T13:41:39.436Z,54.48
2018-10-01T13:44:09.036Z,54.74
2018-10-01T13:46:38.681Z,55.13
2018-10-01T13:49:08.105Z,55.65
2018-10-01T13:51:37.528Z,56.22
2018-10-01T13:54:07.099Z,56.71
2018-10-01T13:56:36.425Z,56.04
2018-10-01T13:59:05.881Z,56.44
2018-10-01T14:01:35.452Z,56.18
2018-10-01T14:04:04.934Z,56.88
2018-10-01T14:06:34.404Z,56.25
2018-10-01T14:09:04.591Z,56.97
2018-10-01T14:11:33.984Z,56.78
2018-10-01T14:14:03.424Z,56.95
2018-10-01T14:16:32.969Z,57.71
2018-10-01T14:19:02.498Z,57.70
2018-10-01T14:21:31.879Z,58.00
2018-10-01T14:24:01.477Z,57.23
2018-10-01T14:26:32.590Z,56.71
2018-10-01T14:29:02.175Z,56.49
2018-10-01T14:31:31.659Z,56.59
2018-10-01T14:34:01.093Z,56.45
2018-10-01T14:36:30.562Z,55.96
2018-10-01T14:39:00.015Z,56.50
2018-10-01T14:41:29.383Z,56.69
2018-10-01T14:43:58.799Z,56.92
2018-10-01T14:46:28.185Z,58.01
2018-10-01T14:48:57.627Z,58.71
2018-10-01T14:51:27.132Z,59.11
2018-10-01T14:53:56.671Z,60.07
2018-10-01T14:56:33.038Z,60.44
2018-10-01T14:59:02.423Z,61.07
2018-10-01T15:01:31.869Z,61.72
2018-10-01T15:04:01.594Z,62.72
2018-10-01T15:06:31.120Z,64.43
2018-10-01T15:09:00.539Z,66.18
2018-10-01T15:11:30.061Z,67.06
2018-10-01T15:13:59.510Z,69.28
2018-10-01T15:16:28.926Z,71.10
2018-10-01T15:18:58.498Z,72.46
2018-10-01T15:21:27.933Z,73.18
2018-10-01T15:23:57.437Z,73.47
2018-10-01T15:26:26.843Z,74.39
2018-10-01T15:28:56.429Z,75.02
2018-10-01T15:31:25.953Z,74.98
2018-10-01T15:33:55.409Z,75.67
2018-10-01T15:36:24.848Z,75.59
2018-10-01T15:38:54.260Z,76.65
2018-10-01T15:41:23.832Z,76.35
2018-10-01T15:43:53.274Z,76.60
2018-10-01T15:46:22.697Z,76.26
2018-10-01T15:48:52.183Z,76.57
2018-10-01T15:51:21.588Z,75.80
2018-10-01T15:53:51.042Z,76.14
2018-10-01T15:56:20.557Z,76.26
2018-10-01T15:58:49.959Z,76.68
2018-10-01T16:01:19.377Z,75.69
2018-10-01T16:03:48.984Z,76.59
2018-10-01T16:06:18.391Z,76.14
2018-10-01T16:08:47.795Z,76.11
2018-10-01T16:11:17.488Z,76.47
2018-10-01T16:13:46.807Z,76.38
2018-10-01T16:16:16.212Z,76.52
2018-10-01T16:18:45.635Z,76.80
2018-10-01T16:21:15.138Z,76.75
2018-10-01T16:23:44.564Z,76.95
2018-10-01T16:26:14.099Z,76.51
2018-10-01T16:28:43.480Z,76.83
2018-10-01T16:31:12.932Z,76.87
2018-10-01T16:33:42.377Z,77.18
2018-10-01T16:36:11.780Z,76.85
2018-10-01T16:38:41.348Z,77.55
2018-10-01T16:41:10.833Z,78.01
2018-10-01T16:43:40.523Z,77.64
2018-10-01T16:46:09.989Z,78.33
2018-10-01T16:48:39.432Z,78.38
2018-10-01T16:51:08.840Z,78.87
2018-10-01T16:53:38.248Z,78.99
2018-10-01T16:56:07.860Z,79.65
2018-10-01T16:58:37.317Z,80.00
2018-10-01T17:01:06.747Z,79.95
2018-10-01T17:03:36.161Z,80.39
2018-10-01T17:06:05.571Z,80.93
2018-10-01T17:08:34.992Z,81.38
2018-10-01T17:11:04.434Z,81.58
2018-10-01T17:13:33.929Z,81.67
2018-10-01T17:16:03.302Z,81.46
2018-10-01T17:18:32.707Z,81.53
2018-10-01T17:21:02.096Z,81.90
2018-10-01T17:23:31.487Z,81.84
2018-10-01T17:26:00.920Z,82.16
2018-10-01T17:28:30.321Z,82.14
2018-10-01T17:30:59.772Z,82.68
2018-10-01T17:33:29.180Z,82.96
2018-10-01T17:35:58.591Z,82.75
2018-10-01T17:38:28.072Z,83.59
2018-10-01T17:40:57.412Z,83.88
2018-10-01T17:43:26.863Z,83.73
2018-10-01T17:45:56.259Z,84.35
2018-10-01T17:48:25.720Z,84.82
2018-10-01T17:50:55.152Z,84.56
2018-10-01T17:53:24.560Z,84.93
2018-10-01T17:55:53.990Z,84.71
2018-10-01T17:58:23.748Z,84.55
2018-10-01T18:00:53.239Z,84.44
2018-10-01T18:03:22.689Z,84.19
2018-10-01T18:05:52.134Z,84.02
2018-10-01T18:08:21.560Z,83.33
2018-10-01T18:10:51.004Z,83.53
2018-10-01T18:13:20.416Z,82.86
2018-10-01T18:15:49.850Z,81.84
2018-10-01T18:18:19.483Z,82.07
2018-10-01T18:20:48.883Z,81.76
2018-10-01T18:23:18.361Z,80.71
2018-10-01T18:25:47.805Z,80.13
2018-10-01T18:28:18.199Z,80.13
2018-10-01T18:30:47.675Z,80.00
2018-10-01T18:33:17.133Z,79.77
2018-10-01T18:35:46.639Z,79.88
2018-10-01T18:38:16.093Z,79.09
2018-10-01T18:40:45.656Z,78.91
2018-10-01T18:43:15.110Z,79.00
2018-10-01T18:45:44.540Z,78.92
2018-10-01T18:48:13.991Z,78.47
2018-10-01T18:50:43.402Z,78.33
2018-10-01T18:53:12.831Z,79.17
2018-10-01T18:55:42.319Z,78.72
2018-10-01T18:58:11.746Z,78.64
2018-10-01T19:00:41.144Z,78.59
2018-10-01T19:03:10.660Z,78.69
2018-10-01T19:05:40.108Z,78.68
2018-10-01T19:08:09.548Z,78.87
2018-10-01T19:10:38.956Z,78.63
2018-10-01T19:13:08.364Z,78.97
2018-10-01T19:15:37.860Z,78.37
2018-10-01T19:18:07.560Z,78.49
2018-10-01T19:20:36.955Z,78.88
2018-10-01T19:23:06.347Z,80.14
2018-10-01T19:25:35.914Z,80.18
2018-10-01T19:28:05.359Z,80.08
2018-10-01T19:30:34.764Z,79.68
2018-10-01T19:33:04.337Z,80.10
2018-10-01T19:35:33.643Z,80.33
2018-10-01T19:38:03.003Z,80.75
2018-10-01T19:40:32.482Z,79.97
2018-10-01T19:43:01.886Z,80.67
2018-10-01T19:45:31.313Z,80.14
2018-10-01T19:48:00.764Z,80.56
2018-10-01T19:50:30.177Z,80.22
2018-10-01T19:52:59.673Z,80.52
2018-10-01T19:55:29.012Z,80.49
2018-10-01T19:57:58.433Z,80.48
2018-10-01T20:00:27.913Z,80.76
2018-10-01T20:02:57.657Z,80.58
2018-10-01T20:05:27.039Z,80.29
2018-10-01T20:07:56.408Z,80.13
2018-10-01T20:10:25.813Z,80.83
2018-10-01T20:12:55.244Z,81.15
2018-10-01T20:15:24.661Z,80.64
2018-10-01T20:17:54.080Z,81.03
2018-10-01T20:20:23.495Z,80.66
2018-10-01T20:22:52.949Z,80.93
2018-10-01T20:25:22.396Z,81.35
2018-10-01T20:27:51.920Z,81.57
2018-10-01T20:30:21.306Z,81.33
2018-10-01T20:32:50.642Z,80.93
2018-10-01T20:35:20.149Z,80.97
2018-10-01T20:37:49.514Z,81.20
2018-10-01T20:40:19.039Z,81.15
2018-10-01T20:42:48.478Z,80.07
2018-10-01T20:45:17.891Z,79.97
2018-10-01T20:47:54.097Z,79.08
2018-10-01T20:50:23.575Z,79.68
2018-10-01T20:52:53.011Z,78.97
2018-10-01T20:55:22.376Z,78.21
2018-10-01T20:57:51.796Z,77.32
2018-10-01T21:00:21.243Z,76.91
2018-10-01T21:02:50.700Z,76.50
2018-10-01T21:05:20.123Z,76.83
2018-10-01T21:07:49.528Z,76.91
2018-10-01T21:10:19.244Z,76.59
2018-10-01T21:12:48.636Z,75.86
2018-10-01T21:15:21.902Z,75.89
2018-10-01T21:17:51.316Z,76.11
2018-10-01T21:20:20.721Z,75.69
2018-10-01T21:22:50.369Z,76.02
2018-10-01T21:25:19.776Z,75.51
2018-10-01T21:27:49.176Z,76.06
2018-10-01T21:30:18.624Z,76.34
2018-10-01T21:32:48.050Z,77.12
2018-10-01T21:35:17.453Z,77.21
2018-10-01T21:37:46.981Z,77.18
2018-10-01T21:40:17.817Z,77.52
2018-10-01T21:42:47.436Z,78.28
2018-10-01T21:45:17.867Z,78.60
2018-10-01T21:47:47.288Z,79.15
2018-10-01T21:50:16.672Z,79.24
2018-10-01T21:52:46.148Z,80.13
2018-10-01T21:55:15.567Z,80.18
2018-10-01T21:57:45.030Z,80.44
2018-10-01T22:00:14.493Z,81.05
2018-10-01T22:02:43.887Z,81.97
2018-10-01T22:05:13.295Z,81.90
2018-10-01T22:07:43.001Z,82.53
2018-10-01T22:10:12.392Z,83.32
2018-10-01T22:12:41.807Z,83.09
2018-10-01T22:15:11.265Z,83.45
2018-10-01T22:17:40.653Z,83.60
2018-10-01T22:20:10.067Z,84.37
2018-10-01T22:22:39.608Z,84.46
2018-10-01T22:25:09.031Z,84.83
2018-10-01T22:27:38.435Z,84.93
2018-10-01T22:30:08.077Z,85.19
2018-10-01T22:32:37.504Z,85.00
2018-10-01T22:35:06.978Z,85.77
2018-10-01T22:37:36.554Z,85.56
2018-10-01T22:40:06.580Z,86.04
2018-10-01T22:42:35.991Z,86.40
2018-10-01T22:45:06.183Z,86.77
2018-10-01T22:47:35.575Z,86.56
2018-10-01T22:50:05.376Z,86.82
2018-10-01T22:52:34.900Z,86.92
2018-10-01T22:55:04.309Z,87.35
2018-10-01T22:57:33.707Z,87.25
2018-10-01T23:00:03.416Z,87.43
2018-10-01T23:02:32.861Z,87.36
2018-10-01T23:05:02.279Z,87.74
2018-10-01T23:07:31.876Z,87.96
2018-10-01T23:10:01.338Z,87.69
2018-10-01T23:12:30.727Z,88.32
2018-10-01T23:15:00.170Z,88.17
2018-10-01T23:17:29.575Z,88.84
2018-10-01T23:19:59.059Z,88.61
2018-10-01T23:22:28.468Z,88.83
2018-10-01T23:24:57.955Z,89.33
2018-10-01T23:27:27.368Z,89.28
2018-10-01T23:29:56.792Z,89.41
2018-10-01T23:32:26.233Z,89.39
2018-10-01T23:34:55.638Z,89.75
2018-10-01T23:37:25.075Z,89.75
2018-10-01T23:39:54.468Z,89.87
2018-10-01T23:42:23.871Z,89.87
2018-10-01T23:44:53.320Z,90.06
2018-10-01T23:47:22.715Z,90.16
2018-10-01T23:49:52.112Z,89.91
2018-10-01T23:52:21.560Z,90.37
2018-10-01T23:54:50.953Z,90.40
2018-10-01T23:57:20.413Z,90.47
2018-10-01T23:59:49.864Z,90.38
